sensor_id;sensor_type;location;lat;lon;timestamp;P1;durP1;ratioP1;P2;durP2;ratioP2
5060;SDS011;2549;52.128;21.068;2022-11-21T00:01:16;50.60;;;23.80;;
5060;SDS011;2549;52.128;21.068;2022-11-21T00:03:45;52.92;;;23.27;;
5060;SDS011;2549;52.128;21.068;2022-11-21T00:06:13;54.72;;;23.08;;
5060;SDS011;2549;52.128;21.068;2022-11-21T00:08:40;61.42;;;24.65;;
5060;SDS011;2549;52.128;21.068;2022-11-21T00:11:07;61.97;;;24.80;;
5060;SDS011;2549;52.128;21.068;2022-11-21T00:13:34;65.50;;;24.75;;
5060;SDS011;2549;52.128;21.068;2022-11-21T00:16:04;58.28;;;26.90;;
5060;SDS011;2549;52.128;21.068;2022-11-21T00:18:33;59.92;;;26.08;;
5060;SDS011;2549;52.128;21.068;2022-11-21T00:21:04;58.55;;;24.83;;
5060;SDS011;2549;52.128;21.068;2022-11-21T00:23:39;64.15;;;26.80;;
5060;SDS011;2549;52.128;21.068;2022-11-21T00:26:06;55.45;;;24.30;;
5060;SDS011;2549;52.128;21.068;2022-11-21T00:28:34;60.33;;;25.98;;
5060;SDS011;2549;52.128;21.068;2022-11-21T00:31:01;55.42;;;24.67;;
5060;SDS011;2549;52.128;21.068;2022-11-21T00:33:29;67.03;;;26.20;;
5060;SDS011;2549;52.128;21.068;2022-11-21T00:35:56;66.63;;;26.65;;
5060;SDS011;2549;52.128;21.068;2022-11-21T00:38:23;56.80;;;25.30;;
5060;SDS011;2549;52.128;21.068;2022-11-21T00:40:50;56.05;;;27.17;;
5060;SDS011;2549;52.128;21.068;2022-11-21T00:43:17;65.10;;;27.90;;
5060;SDS011;2549;52.128;21.068;2022-11-21T00:45:43;59.80;;;27.95;;
5060;SDS011;2549;52.128;21.068;2022-11-21T00:48:10;62.60;;;25.65;;
5060;SDS011;2549;52.128;21.068;2022-11-21T00:50:37;69.57;;;29.65;;
5060;SDS011;2549;52.128;21.068;2022-11-21T00:53:04;63.97;;;28.10;;
5060;SDS011;2549;52.128;21.068;2022-11-21T00:55:31;58.85;;;26.58;;
5060;SDS011;2549;52.128;21.068;2022-11-21T00:57:57;59.45;;;27.05;;
5060;SDS011;2549;52.128;21.068;2022-11-21T01:00:24;54.83;;;26.73;;
5060;SDS011;2549;52.128;21.068;2022-11-21T01:02:51;66.97;;;26.75;;
5060;SDS011;2549;52.128;21.068;2022-11-21T01:05:18;71.57;;;28.77;;
5060;SDS011;2549;52.128;21.068;2022-11-21T01:07:46;52.53;;;25.63;;
5060;SDS011;2549;52.128;21.068;2022-11-21T01:10:14;61.95;;;26.75;;
5060;SDS011;2549;52.128;21.068;2022-11-21T01:12:41;60.50;;;26.48;;
5060;SDS011;2549;52.128;21.068;2022-11-21T01:15:09;69.32;;;28.65;;
5060;SDS011;2549;52.128;21.068;2022-11-21T01:17:36;66.40;;;28.85;;
5060;SDS011;2549;52.128;21.068;2022-11-21T01:20:03;63.40;;;27.20;;
5060;SDS011;2549;52.128;21.068;2022-11-21T01:22:32;64.60;;;28.13;;
5060;SDS011;2549;52.128;21.068;2022-11-21T01:24:59;64.93;;;27.27;;
5060;SDS011;2549;52.128;21.068;2022-11-21T01:27:25;63.40;;;27.42;;
5060;SDS011;2549;52.128;21.068;2022-11-21T01:29:52;62.38;;;27.50;;
5060;SDS011;2549;52.128;21.068;2022-11-21T01:32:19;61.22;;;26.50;;
5060;SDS011;2549;52.128;21.068;2022-11-21T01:34:46;67.07;;;26.25;;
5060;SDS011;2549;52.128;21.068;2022-11-21T01:37:12;65.60;;;28.00;;
5060;SDS011;2549;52.128;21.068;2022-11-21T01:39:39;62.97;;;27.02;;
5060;SDS011;2549;52.128;21.068;2022-11-21T01:42:07;62.55;;;25.60;;
5060;SDS011;2549;52.128;21.068;2022-11-21T01:44:50;63.97;;;27.30;;
5060;SDS011;2549;52.128;21.068;2022-11-21T01:47:19;63.47;;;25.92;;
5060;SDS011;2549;52.128;21.068;2022-11-21T01:49:47;65.60;;;27.85;;
5060;SDS011;2549;52.128;21.068;2022-11-21T01:52:19;74.25;;;28.60;;
5060;SDS011;2549;52.128;21.068;2022-11-21T01:55:04;70.57;;;26.08;;
5060;SDS011;2549;52.128;21.068;2022-11-21T01:57:40;62.10;;;27.15;;
5060;SDS011;2549;52.128;21.068;2022-11-21T02:00:20;66.57;;;27.33;;
5060;SDS011;2549;52.128;21.068;2022-11-21T02:02:52;68.18;;;26.27;;
5060;SDS011;2549;52.128;21.068;2022-11-21T02:05:24;62.08;;;27.08;;
5060;SDS011;2549;52.128;21.068;2022-11-21T02:07:57;62.17;;;25.00;;
5060;SDS011;2549;52.128;21.068;2022-11-21T02:10:36;63.20;;;26.98;;
5060;SDS011;2549;52.128;21.068;2022-11-21T02:13:05;57.83;;;27.85;;
5060;SDS011;2549;52.128;21.068;2022-11-21T02:15:32;62.58;;;27.65;;
5060;SDS011;2549;52.128;21.068;2022-11-21T02:17:58;65.03;;;27.35;;
5060;SDS011;2549;52.128;21.068;2022-11-21T02:20:26;60.65;;;26.35;;
5060;SDS011;2549;52.128;21.068;2022-11-21T02:23:10;58.78;;;26.23;;
5060;SDS011;2549;52.128;21.068;2022-11-21T02:25:46;53.47;;;24.60;;
5060;SDS011;2549;52.128;21.068;2022-11-21T02:28:14;65.28;;;28.23;;
5060;SDS011;2549;52.128;21.068;2022-11-21T02:30:44;62.83;;;26.95;;
5060;SDS011;2549;52.128;21.068;2022-11-21T02:33:12;67.85;;;27.63;;
5060;SDS011;2549;52.128;21.068;2022-11-21T02:35:39;67.53;;;26.05;;
5060;SDS011;2549;52.128;21.068;2022-11-21T02:38:48;59.40;;;27.40;;
5060;SDS011;2549;52.128;21.068;2022-11-21T02:43:52;56.28;;;24.08;;
5060;SDS011;2549;52.128;21.068;2022-11-21T02:46:27;58.80;;;26.83;;
5060;SDS011;2549;52.128;21.068;2022-11-21T02:48:54;74.55;;;27.20;;
5060;SDS011;2549;52.128;21.068;2022-11-21T02:51:23;64.13;;;28.67;;
5060;SDS011;2549;52.128;21.068;2022-11-21T02:53:50;64.85;;;27.17;;
5060;SDS011;2549;52.128;21.068;2022-11-21T02:56:17;61.03;;;25.92;;
5060;SDS011;2549;52.128;21.068;2022-11-21T02:58:44;62.97;;;25.75;;
5060;SDS011;2549;52.128;21.068;2022-11-21T03:01:11;55.65;;;25.95;;
5060;SDS011;2549;52.128;21.068;2022-11-21T03:03:38;58.13;;;25.27;;
5060;SDS011;2549;52.128;21.068;2022-11-21T03:06:05;63.80;;;25.30;;
5060;SDS011;2549;52.128;21.068;2022-11-21T03:08:31;61.50;;;26.00;;
5060;SDS011;2549;52.128;21.068;2022-11-21T03:10:58;64.25;;;25.95;;
5060;SDS011;2549;52.128;21.068;2022-11-21T03:13:25;52.65;;;24.80;;
5060;SDS011;2549;52.128;21.068;2022-11-21T03:15:52;57.30;;;24.92;;
5060;SDS011;2549;52.128;21.068;2022-11-21T03:18:20;61.72;;;25.98;;
5060;SDS011;2549;52.128;21.068;2022-11-21T03:20:47;60.00;;;27.17;;
5060;SDS011;2549;52.128;21.068;2022-11-21T03:23:14;62.78;;;25.48;;
5060;SDS011;2549;52.128;21.068;2022-11-21T03:25:41;60.28;;;26.55;;
5060;SDS011;2549;52.128;21.068;2022-11-21T03:28:07;52.78;;;24.23;;
5060;SDS011;2549;52.128;21.068;2022-11-21T03:30:34;56.88;;;24.60;;
5060;SDS011;2549;52.128;21.068;2022-11-21T03:33:01;66.07;;;26.80;;
5060;SDS011;2549;52.128;21.068;2022-11-21T03:35:28;69.03;;;26.88;;
5060;SDS011;2549;52.128;21.068;2022-11-21T03:40:46;59.92;;;23.83;;
5060;SDS011;2549;52.128;21.068;2022-11-21T03:43:12;64.38;;;26.05;;
5060;SDS011;2549;52.128;21.068;2022-11-21T03:45:39;65.50;;;27.27;;
5060;SDS011;2549;52.128;21.068;2022-11-21T03:48:06;59.70;;;26.05;;
5060;SDS011;2549;52.128;21.068;2022-11-21T03:50:33;64.72;;;27.60;;
5060;SDS011;2549;52.128;21.068;2022-11-21T03:53:00;68.63;;;27.88;;
5060;SDS011;2549;52.128;21.068;2022-11-21T03:55:27;57.85;;;26.85;;
5060;SDS011;2549;52.128;21.068;2022-11-21T03:57:54;62.38;;;26.27;;
5060;SDS011;2549;52.128;21.068;2022-11-21T04:00:20;71.70;;;27.15;;
5060;SDS011;2549;52.128;21.068;2022-11-21T04:02:47;57.78;;;23.98;;
5060;SDS011;2549;52.128;21.068;2022-11-21T04:05:14;58.15;;;25.08;;
5060;SDS011;2549;52.128;21.068;2022-11-21T04:07:41;57.55;;;25.98;;
5060;SDS011;2549;52.128;21.068;2022-11-21T04:10:08;59.60;;;24.73;;
5060;SDS011;2549;52.128;21.068;2022-11-21T04:12:35;59.00;;;25.00;;
5060;SDS011;2549;52.128;21.068;2022-11-21T04:15:02;58.20;;;23.27;;
5060;SDS011;2549;52.128;21.068;2022-11-21T04:17:37;62.63;;;25.88;;
5060;SDS011;2549;52.128;21.068;2022-11-21T04:20:04;53.15;;;24.15;;
5060;SDS011;2549;52.128;21.068;2022-11-21T04:22:31;52.55;;;23.65;;
5060;SDS011;2549;52.128;21.068;2022-11-21T04:24:57;60.75;;;25.70;;
5060;SDS011;2549;52.128;21.068;2022-11-21T04:27:24;68.25;;;24.83;;
5060;SDS011;2549;52.128;21.068;2022-11-21T04:29:51;56.88;;;23.95;;
5060;SDS011;2549;52.128;21.068;2022-11-21T04:32:18;64.03;;;22.88;;
5060;SDS011;2549;52.128;21.068;2022-11-21T04:34:44;57.67;;;25.95;;
5060;SDS011;2549;52.128;21.068;2022-11-21T04:37:11;60.60;;;26.48;;
5060;SDS011;2549;52.128;21.068;2022-11-21T04:39:38;54.58;;;26.17;;
5060;SDS011;2549;52.128;21.068;2022-11-21T04:42:05;54.30;;;24.67;;
5060;SDS011;2549;52.128;21.068;2022-11-21T04:44:32;55.65;;;25.23;;
5060;SDS011;2549;52.128;21.068;2022-11-21T04:46:59;63.97;;;25.70;;
5060;SDS011;2549;52.128;21.068;2022-11-21T04:49:30;55.38;;;24.60;;
5060;SDS011;2549;52.128;21.068;2022-11-21T04:51:57;51.38;;;24.15;;
5060;SDS011;2549;52.128;21.068;2022-11-21T04:54:24;71.68;;;26.52;;
5060;SDS011;2549;52.128;21.068;2022-11-21T04:56:51;59.33;;;24.15;;
5060;SDS011;2549;52.128;21.068;2022-11-21T04:59:18;62.33;;;24.60;;
5060;SDS011;2549;52.128;21.068;2022-11-21T05:01:45;48.90;;;22.33;;
5060;SDS011;2549;52.128;21.068;2022-11-21T05:04:11;51.78;;;23.55;;
5060;SDS011;2549;52.128;21.068;2022-11-21T05:06:38;68.63;;;25.27;;
5060;SDS011;2549;52.128;21.068;2022-11-21T05:09:05;55.55;;;23.80;;
5060;SDS011;2549;52.128;21.068;2022-11-21T05:11:32;59.72;;;26.67;;
5060;SDS011;2549;52.128;21.068;2022-11-21T05:14:17;55.10;;;25.13;;
5060;SDS011;2549;52.128;21.068;2022-11-21T05:16:44;56.72;;;24.67;;
5060;SDS011;2549;52.128;21.068;2022-11-21T05:19:11;61.55;;;26.58;;
5060;SDS011;2549;52.128;21.068;2022-11-21T05:21:38;56.65;;;22.70;;
5060;SDS011;2549;52.128;21.068;2022-11-21T05:24:04;59.83;;;25.20;;
5060;SDS011;2549;52.128;21.068;2022-11-21T05:26:32;71.43;;;25.00;;
5060;SDS011;2549;52.128;21.068;2022-11-21T05:28:58;66.40;;;25.83;;
5060;SDS011;2549;52.128;21.068;2022-11-21T05:31:25;52.75;;;22.90;;
5060;SDS011;2549;52.128;21.068;2022-11-21T05:33:52;54.88;;;22.52;;
5060;SDS011;2549;52.128;21.068;2022-11-21T05:36:19;47.65;;;23.02;;
5060;SDS011;2549;52.128;21.068;2022-11-21T05:38:46;54.78;;;24.23;;
5060;SDS011;2549;52.128;21.068;2022-11-21T05:41:13;55.63;;;23.20;;
5060;SDS011;2549;52.128;21.068;2022-11-21T05:43:40;61.05;;;24.30;;
5060;SDS011;2549;52.128;21.068;2022-11-21T05:46:13;50.22;;;21.35;;
5060;SDS011;2549;52.128;21.068;2022-11-21T05:48:41;53.72;;;23.58;;
5060;SDS011;2549;52.128;21.068;2022-11-21T05:51:09;60.78;;;22.90;;
5060;SDS011;2549;52.128;21.068;2022-11-21T05:53:36;59.78;;;23.50;;
5060;SDS011;2549;52.128;21.068;2022-11-21T05:56:07;56.78;;;23.17;;
5060;SDS011;2549;52.128;21.068;2022-11-21T05:58:38;61.00;;;23.90;;
5060;SDS011;2549;52.128;21.068;2022-11-21T06:01:06;57.95;;;24.70;;
5060;SDS011;2549;52.128;21.068;2022-11-21T06:03:34;52.30;;;23.63;;
5060;SDS011;2549;52.128;21.068;2022-11-21T06:06:10;52.90;;;24.58;;
5060;SDS011;2549;52.128;21.068;2022-11-21T06:08:42;61.63;;;25.85;;
5060;SDS011;2549;52.128;21.068;2022-11-21T06:11:12;59.25;;;24.17;;
5060;SDS011;2549;52.128;21.068;2022-11-21T06:13:40;54.38;;;24.85;;
5060;SDS011;2549;52.128;21.068;2022-11-21T06:16:08;52.67;;;24.00;;
5060;SDS011;2549;52.128;21.068;2022-11-21T06:18:38;51.75;;;22.35;;
5060;SDS011;2549;52.128;21.068;2022-11-21T06:23:42;56.45;;;22.70;;
5060;SDS011;2549;52.128;21.068;2022-11-21T06:26:13;53.45;;;24.20;;
5060;SDS011;2549;52.128;21.068;2022-11-21T06:28:42;56.63;;;24.05;;
5060;SDS011;2549;52.128;21.068;2022-11-21T06:31:12;53.33;;;23.90;;
5060;SDS011;2549;52.128;21.068;2022-11-21T06:33:46;55.67;;;23.40;;
5060;SDS011;2549;52.128;21.068;2022-11-21T06:36:16;52.92;;;23.70;;
5060;SDS011;2549;52.128;21.068;2022-11-21T06:38:44;60.33;;;24.10;;
5060;SDS011;2549;52.128;21.068;2022-11-21T06:41:12;56.88;;;24.45;;
5060;SDS011;2549;52.128;21.068;2022-11-21T06:43:43;70.18;;;22.88;;
5060;SDS011;2549;52.128;21.068;2022-11-21T06:46:11;61.08;;;23.65;;
5060;SDS011;2549;52.128;21.068;2022-11-21T06:48:39;57.03;;;23.17;;
5060;SDS011;2549;52.128;21.068;2022-11-21T06:51:20;56.15;;;23.10;;
5060;SDS011;2549;52.128;21.068;2022-11-21T06:53:52;48.33;;;21.60;;
5060;SDS011;2549;52.128;21.068;2022-11-21T06:56:24;59.08;;;23.00;;
5060;SDS011;2549;52.128;21.068;2022-11-21T06:58:52;56.38;;;22.38;;
5060;SDS011;2549;52.128;21.068;2022-11-21T07:01:19;61.38;;;22.65;;
5060;SDS011;2549;52.128;21.068;2022-11-21T07:03:46;52.25;;;22.95;;
5060;SDS011;2549;52.128;21.068;2022-11-21T07:06:13;57.50;;;22.25;;
5060;SDS011;2549;52.128;21.068;2022-11-21T07:08:40;50.40;;;22.38;;
5060;SDS011;2549;52.128;21.068;2022-11-21T07:11:09;54.58;;;22.20;;
5060;SDS011;2549;52.128;21.068;2022-11-21T07:13:53;45.08;;;20.10;;
5060;SDS011;2549;52.128;21.068;2022-11-21T07:16:20;64.63;;;23.55;;
5060;SDS011;2549;52.128;21.068;2022-11-21T07:18:47;55.10;;;22.05;;
5060;SDS011;2549;52.128;21.068;2022-11-21T07:21:14;48.63;;;20.80;;
5060;SDS011;2549;52.128;21.068;2022-11-21T07:23:41;43.30;;;21.50;;
5060;SDS011;2549;52.128;21.068;2022-11-21T07:26:08;45.65;;;20.38;;
5060;SDS011;2549;52.128;21.068;2022-11-21T07:28:36;49.28;;;23.42;;
5060;SDS011;2549;52.128;21.068;2022-11-21T07:31:03;53.15;;;21.88;;
5060;SDS011;2549;52.128;21.068;2022-11-21T07:33:38;56.22;;;22.60;;
5060;SDS011;2549;52.128;21.068;2022-11-21T07:36:05;49.03;;;21.35;;
5060;SDS011;2549;52.128;21.068;2022-11-21T07:38:32;64.63;;;24.27;;
5060;SDS011;2549;52.128;21.068;2022-11-21T07:40:59;58.97;;;24.13;;
5060;SDS011;2549;52.128;21.068;2022-11-21T07:43:26;50.30;;;22.70;;
5060;SDS011;2549;52.128;21.068;2022-11-21T07:45:53;46.28;;;22.52;;
5060;SDS011;2549;52.128;21.068;2022-11-21T07:48:20;60.97;;;25.60;;
5060;SDS011;2549;52.128;21.068;2022-11-21T07:50:47;49.00;;;23.75;;
5060;SDS011;2549;52.128;21.068;2022-11-21T07:53:14;52.47;;;22.10;;
5060;SDS011;2549;52.128;21.068;2022-11-21T07:55:41;53.40;;;23.88;;
5060;SDS011;2549;52.128;21.068;2022-11-21T07:58:09;62.47;;;23.55;;
5060;SDS011;2549;52.128;21.068;2022-11-21T08:00:38;52.28;;;24.63;;
5060;SDS011;2549;52.128;21.068;2022-11-21T08:03:08;68.28;;;25.98;;
5060;SDS011;2549;52.128;21.068;2022-11-21T08:05:42;64.53;;;23.27;;
5060;SDS011;2549;52.128;21.068;2022-11-21T08:08:10;60.00;;;24.75;;
5060;SDS011;2549;52.128;21.068;2022-11-21T08:10:38;61.97;;;25.05;;
5060;SDS011;2549;52.128;21.068;2022-11-21T08:13:07;56.85;;;25.45;;
5060;SDS011;2549;52.128;21.068;2022-11-21T08:15:34;58.90;;;24.60;;
5060;SDS011;2549;52.128;21.068;2022-11-21T08:18:08;58.38;;;23.35;;
5060;SDS011;2549;52.128;21.068;2022-11-21T08:20:36;58.67;;;23.73;;
5060;SDS011;2549;52.128;21.068;2022-11-21T08:23:03;50.60;;;23.08;;
5060;SDS011;2549;52.128;21.068;2022-11-21T08:25:31;56.33;;;23.48;;
5060;SDS011;2549;52.128;21.068;2022-11-21T08:27:59;47.25;;;21.25;;
5060;SDS011;2549;52.128;21.068;2022-11-21T08:30:27;50.67;;;23.40;;
5060;SDS011;2549;52.128;21.068;2022-11-21T08:32:56;51.17;;;22.30;;
5060;SDS011;2549;52.128;21.068;2022-11-21T08:35:24;54.97;;;24.80;;
5060;SDS011;2549;52.128;21.068;2022-11-21T08:37:55;55.10;;;25.42;;
5060;SDS011;2549;52.128;21.068;2022-11-21T08:40:26;53.72;;;24.05;;
5060;SDS011;2549;52.128;21.068;2022-11-21T08:42:58;55.67;;;24.38;;
5060;SDS011;2549;52.128;21.068;2022-11-21T08:45:26;52.63;;;24.35;;
5060;SDS011;2549;52.128;21.068;2022-11-21T08:47:53;54.80;;;23.90;;
5060;SDS011;2549;52.128;21.068;2022-11-21T08:50:21;58.30;;;24.30;;
5060;SDS011;2549;52.128;21.068;2022-11-21T08:52:48;66.65;;;27.70;;
5060;SDS011;2549;52.128;21.068;2022-11-21T08:55:15;53.78;;;23.98;;
5060;SDS011;2549;52.128;21.068;2022-11-21T08:57:42;53.03;;;25.75;;
5060;SDS011;2549;52.128;21.068;2022-11-21T09:00:09;62.08;;;25.75;;
5060;SDS011;2549;52.128;21.068;2022-11-21T09:02:39;49.63;;;24.75;;
5060;SDS011;2549;52.128;21.068;2022-11-21T09:05:06;65.38;;;26.15;;
5060;SDS011;2549;52.128;21.068;2022-11-21T09:07:34;56.15;;;26.48;;
5060;SDS011;2549;52.128;21.068;2022-11-21T09:10:01;48.55;;;23.30;;
5060;SDS011;2549;52.128;21.068;2022-11-21T09:12:29;64.70;;;26.10;;
5060;SDS011;2549;52.128;21.068;2022-11-21T09:14:56;55.30;;;25.27;;
5060;SDS011;2549;52.128;21.068;2022-11-21T09:17:41;63.03;;;25.23;;
5060;SDS011;2549;52.128;21.068;2022-11-21T09:20:27;47.53;;;24.08;;
5060;SDS011;2549;52.128;21.068;2022-11-21T09:22:54;54.10;;;25.08;;
5060;SDS011;2549;52.128;21.068;2022-11-21T09:25:21;56.45;;;24.98;;
5060;SDS011;2549;52.128;21.068;2022-11-21T09:27:47;50.97;;;24.65;;
5060;SDS011;2549;52.128;21.068;2022-11-21T09:30:14;56.65;;;23.58;;
5060;SDS011;2549;52.128;21.068;2022-11-21T09:32:41;53.30;;;25.17;;
5060;SDS011;2549;52.128;21.068;2022-11-21T09:35:08;59.92;;;23.67;;
5060;SDS011;2549;52.128;21.068;2022-11-21T09:37:36;61.70;;;24.63;;
5060;SDS011;2549;52.128;21.068;2022-11-21T09:40:03;61.35;;;24.45;;
5060;SDS011;2549;52.128;21.068;2022-11-21T09:47:44;49.13;;;23.90;;
5060;SDS011;2549;52.128;21.068;2022-11-21T09:57:59;50.80;;;23.90;;
5060;SDS011;2549;52.128;21.068;2022-11-21T10:00:29;46.50;;;22.40;;
5060;SDS011;2549;52.128;21.068;2022-11-21T10:02:56;51.83;;;24.52;;
5060;SDS011;2549;52.128;21.068;2022-11-21T10:08:15;50.65;;;23.23;;
5060;SDS011;2549;52.128;21.068;2022-11-21T10:11:01;44.35;;;21.48;;
5060;SDS011;2549;52.128;21.068;2022-11-21T10:30:04;48.75;;;21.35;;
5060;SDS011;2549;52.128;21.068;2022-11-21T10:32:36;42.03;;;20.60;;
5060;SDS011;2549;52.128;21.068;2022-11-21T10:35:25;39.35;;;20.17;;
5060;SDS011;2549;52.128;21.068;2022-11-21T10:38:00;37.80;;;18.35;;
5060;SDS011;2549;52.128;21.068;2022-11-21T10:40:36;42.40;;;21.13;;
5060;SDS011;2549;52.128;21.068;2022-11-21T10:46:18;38.90;;;19.58;;
5060;SDS011;2549;52.128;21.068;2022-11-21T10:49:01;40.40;;;19.50;;
5060;SDS011;2549;52.128;21.068;2022-11-21T10:51:34;41.60;;;17.90;;
5060;SDS011;2549;52.128;21.068;2022-11-21T10:54:20;45.30;;;19.40;;
5060;SDS011;2549;52.128;21.068;2022-11-21T10:57:15;40.22;;;17.80;;
5060;SDS011;2549;52.128;21.068;2022-11-21T11:02:36;36.90;;;18.23;;
5060;SDS011;2549;52.128;21.068;2022-11-21T11:07:57;38.58;;;16.92;;
5060;SDS011;2549;52.128;21.068;2022-11-21T11:10:24;37.30;;;16.95;;
5060;SDS011;2549;52.128;21.068;2022-11-21T11:12:53;41.67;;;18.35;;
5060;SDS011;2549;52.128;21.068;2022-11-21T11:16:03;32.63;;;16.70;;
5060;SDS011;2549;52.128;21.068;2022-11-21T11:21:41;34.50;;;17.55;;
5060;SDS011;2549;52.128;21.068;2022-11-21T11:31:41;35.45;;;16.42;;
5060;SDS011;2549;52.128;21.068;2022-11-21T11:34:21;38.83;;;17.02;;
5060;SDS011;2549;52.128;21.068;2022-11-21T11:40:09;36.17;;;16.90;;
5060;SDS011;2549;52.128;21.068;2022-11-21T11:49:10;34.42;;;16.10;;
5060;SDS011;2549;52.128;21.068;2022-11-21T11:52:01;31.20;;;16.10;;
5060;SDS011;2549;52.128;21.068;2022-11-21T11:54:40;34.80;;;16.60;;
5060;SDS011;2549;52.128;21.068;2022-11-21T11:57:12;36.10;;;16.52;;
5060;SDS011;2549;52.128;21.068;2022-11-21T11:59:40;35.38;;;17.52;;
5060;SDS011;2549;52.128;21.068;2022-11-21T12:02:20;34.67;;;16.27;;
5060;SDS011;2549;52.128;21.068;2022-11-21T12:05:38;32.58;;;16.10;;
5060;SDS011;2549;52.128;21.068;2022-11-21T12:07:50;37.25;;;15.43;;
5060;SDS011;2549;52.128;21.068;2022-11-21T12:10:56;40.80;;;16.00;;
5060;SDS011;2549;52.128;21.068;2022-11-21T12:13:50;39.95;;;15.95;;
5060;SDS011;2549;52.128;21.068;2022-11-21T12:16:20;40.00;;;16.48;;
5060;SDS011;2549;52.128;21.068;2022-11-21T12:18:59;33.00;;;16.73;;
5060;SDS011;2549;52.128;21.068;2022-11-21T12:21:31;43.28;;;17.52;;
5060;SDS011;2549;52.128;21.068;2022-11-21T12:23:57;40.08;;;16.55;;
5060;SDS011;2549;52.128;21.068;2022-11-21T12:29:20;34.90;;;16.95;;
5060;SDS011;2549;52.128;21.068;2022-11-21T12:45:23;45.35;;;19.25;;
5060;SDS011;2549;52.128;21.068;2022-11-21T13:02:17;35.63;;;17.85;;
5060;SDS011;2549;52.128;21.068;2022-11-21T13:04:49;45.25;;;17.80;;
5060;SDS011;2549;52.128;21.068;2022-11-21T13:07:19;43.58;;;18.33;;
5060;SDS011;2549;52.128;21.068;2022-11-21T13:09:49;44.60;;;19.70;;
5060;SDS011;2549;52.128;21.068;2022-11-21T13:15:26;43.50;;;19.33;;
5060;SDS011;2549;52.128;21.068;2022-11-21T13:20:49;35.72;;;17.85;;
5060;SDS011;2549;52.128;21.068;2022-11-21T13:23:36;42.22;;;19.15;;
5060;SDS011;2549;52.128;21.068;2022-11-21T13:29:06;50.17;;;21.42;;
5060;SDS011;2549;52.128;21.068;2022-11-21T13:31:39;38.92;;;18.27;;
5060;SDS011;2549;52.128;21.068;2022-11-21T13:37:03;50.70;;;20.92;;
5060;SDS011;2549;52.128;21.068;2022-11-21T13:39:31;46.45;;;19.15;;
5060;SDS011;2549;52.128;21.068;2022-11-21T13:42:00;42.40;;;19.17;;
5060;SDS011;2549;52.128;21.068;2022-11-21T13:44:50;38.20;;;18.40;;
5060;SDS011;2549;52.128;21.068;2022-11-21T13:48:02;36.83;;;19.05;;
5060;SDS011;2549;52.128;21.068;2022-11-21T14:04:28;39.35;;;19.70;;
5060;SDS011;2549;52.128;21.068;2022-11-21T14:07:26;48.55;;;19.13;;
5060;SDS011;2549;52.128;21.068;2022-11-21T14:10:02;46.10;;;20.10;;
5060;SDS011;2549;52.128;21.068;2022-11-21T14:12:35;49.05;;;21.65;;
5060;SDS011;2549;52.128;21.068;2022-11-21T14:15:13;51.60;;;21.65;;
5060;SDS011;2549;52.128;21.068;2022-11-21T14:17:47;64.10;;;23.50;;
5060;SDS011;2549;52.128;21.068;2022-11-21T14:20:28;53.05;;;22.33;;
5060;SDS011;2549;52.128;21.068;2022-11-21T14:28:30;58.63;;;23.17;;
5060;SDS011;2549;52.128;21.068;2022-11-21T14:31:04;57.80;;;26.52;;
5060;SDS011;2549;52.128;21.068;2022-11-21T14:33:42;61.25;;;26.60;;
5060;SDS011;2549;52.128;21.068;2022-11-21T14:36:17;55.85;;;24.08;;
5060;SDS011;2549;52.128;21.068;2022-11-21T14:41:38;58.30;;;25.20;;
5060;SDS011;2549;52.128;21.068;2022-11-21T14:44:12;67.38;;;26.23;;
5060;SDS011;2549;52.128;21.068;2022-11-21T14:46:42;58.03;;;27.05;;
5060;SDS011;2549;52.128;21.068;2022-11-21T14:51:43;64.65;;;27.88;;
5060;SDS011;2549;52.128;21.068;2022-11-21T14:54:30;67.82;;;27.15;;
5060;SDS011;2549;52.128;21.068;2022-11-21T14:57:05;63.95;;;25.92;;
5060;SDS011;2549;52.128;21.068;2022-11-21T14:59:39;55.40;;;25.42;;
5060;SDS011;2549;52.128;21.068;2022-11-21T15:02:12;64.03;;;28.20;;
5060;SDS011;2549;52.128;21.068;2022-11-21T15:04:40;56.92;;;24.92;;
5060;SDS011;2549;52.128;21.068;2022-11-21T15:07:19;63.13;;;27.38;;
5060;SDS011;2549;52.128;21.068;2022-11-21T15:09:57;60.78;;;26.10;;
5060;SDS011;2549;52.128;21.068;2022-11-21T15:17:47;61.17;;;26.95;;
5060;SDS011;2549;52.128;21.068;2022-11-21T15:20:43;54.55;;;24.17;;
5060;SDS011;2549;52.128;21.068;2022-11-21T15:23:34;60.42;;;26.42;;
5060;SDS011;2549;52.128;21.068;2022-11-21T15:26:01;68.97;;;27.70;;
5060;SDS011;2549;52.128;21.068;2022-11-21T15:28:29;60.78;;;27.13;;
5060;SDS011;2549;52.128;21.068;2022-11-21T15:31:16;64.15;;;27.33;;
5060;SDS011;2549;52.128;21.068;2022-11-21T15:36:41;55.00;;;25.88;;
5060;SDS011;2549;52.128;21.068;2022-11-21T15:39:10;59.88;;;26.08;;
5060;SDS011;2549;52.128;21.068;2022-11-21T15:41:43;64.85;;;26.80;;
5060;SDS011;2549;52.128;21.068;2022-11-21T15:46:38;60.83;;;26.80;;
5060;SDS011;2549;52.128;21.068;2022-11-21T15:49:12;72.68;;;25.90;;
5060;SDS011;2549;52.128;21.068;2022-11-21T15:51:57;59.83;;;26.17;;
5060;SDS011;2549;52.128;21.068;2022-11-21T15:54:34;53.40;;;23.77;;
5060;SDS011;2549;52.128;21.068;2022-11-21T15:57:00;60.80;;;26.77;;
5060;SDS011;2549;52.128;21.068;2022-11-21T15:59:27;51.38;;;23.63;;
5060;SDS011;2549;52.128;21.068;2022-11-21T16:01:54;62.78;;;27.30;;
5060;SDS011;2549;52.128;21.068;2022-11-21T16:04:21;63.15;;;25.73;;
5060;SDS011;2549;52.128;21.068;2022-11-21T16:06:51;63.42;;;26.20;;
5060;SDS011;2549;52.128;21.068;2022-11-21T16:09:18;67.65;;;27.70;;
5060;SDS011;2549;52.128;21.068;2022-11-21T16:11:45;58.58;;;25.20;;
5060;SDS011;2549;52.128;21.068;2022-11-21T16:14:13;53.47;;;24.35;;
5060;SDS011;2549;52.128;21.068;2022-11-21T16:16:41;60.08;;;25.65;;
5060;SDS011;2549;52.128;21.068;2022-11-21T16:19:10;55.13;;;25.40;;
5060;SDS011;2549;52.128;21.068;2022-11-21T16:21:37;66.20;;;25.30;;
5060;SDS011;2549;52.128;21.068;2022-11-21T16:24:05;64.10;;;25.48;;
5060;SDS011;2549;52.128;21.068;2022-11-21T16:26:32;61.17;;;27.67;;
5060;SDS011;2549;52.128;21.068;2022-11-21T16:28:59;58.38;;;26.52;;
5060;SDS011;2549;52.128;21.068;2022-11-21T16:31:30;71.57;;;26.08;;
5060;SDS011;2549;52.128;21.068;2022-11-21T16:33:57;67.68;;;27.80;;
5060;SDS011;2549;52.128;21.068;2022-11-21T16:36:26;61.53;;;25.05;;
5060;SDS011;2549;52.128;21.068;2022-11-21T16:38:54;57.38;;;25.63;;
5060;SDS011;2549;52.128;21.068;2022-11-21T16:41:27;62.28;;;25.77;;
5060;SDS011;2549;52.128;21.068;2022-11-21T16:43:54;73.88;;;27.92;;
5060;SDS011;2549;52.128;21.068;2022-11-21T16:46:22;57.60;;;26.27;;
5060;SDS011;2549;52.128;21.068;2022-11-21T16:48:59;64.82;;;27.65;;
5060;SDS011;2549;52.128;21.068;2022-11-21T16:51:27;68.13;;;26.20;;
5060;SDS011;2549;52.128;21.068;2022-11-21T16:53:55;59.00;;;27.10;;
5060;SDS011;2549;52.128;21.068;2022-11-21T16:56:28;51.83;;;24.23;;
5060;SDS011;2549;52.128;21.068;2022-11-21T16:58:54;69.53;;;28.73;;
5060;SDS011;2549;52.128;21.068;2022-11-21T17:01:22;62.42;;;27.10;;
5060;SDS011;2549;52.128;21.068;2022-11-21T17:03:51;64.80;;;26.35;;
5060;SDS011;2549;52.128;21.068;2022-11-21T17:06:22;71.90;;;26.52;;
5060;SDS011;2549;52.128;21.068;2022-11-21T17:08:52;63.13;;;25.90;;
5060;SDS011;2549;52.128;21.068;2022-11-21T17:11:22;53.58;;;25.60;;
5060;SDS011;2549;52.128;21.068;2022-11-21T17:13:53;59.20;;;25.58;;
5060;SDS011;2549;52.128;21.068;2022-11-21T17:16:21;61.38;;;25.70;;
5060;SDS011;2549;52.128;21.068;2022-11-21T17:18:52;62.90;;;25.13;;
5060;SDS011;2549;52.128;21.068;2022-11-21T17:21:24;61.08;;;25.92;;